Time;durP1;ratioP1;P1;durP2;ratioP2;P2;SDS_P1;SDS_P2;PMS_P1;PMS_P2;Temp;Humidity;BMP_temperature;BMP_pressure;BME280_temperature;BME280_humidity;BME280_pressure;Samples;Min_cycle;Max_cycle;Signal;HPM_P1;HPM_P2
2022/06/14 00:03:42;;;;;;;2.15;1.33;;;;;;;19.13;52.30;97356.28;10006130;29;20045;-85
2022/06/14 00:09:20;;;;;;;2.08;1.40;;;;;;;19.12;52.08;97360.06;10015890;29;20064;-85
2022/06/14 00:14:40;;;;;;;2.13;1.55;;;;;;;19.13;52.09;97364.38;10022333;29;20056;-84
2022/06/14 00:19:59;;;;;;;1.30;1.20;;;;;;;19.12;51.84;97370.09;10014513;29;20102;-84
2022/06/14 00:25:29;;;;;;;3.35;1.33;;;;;;;19.11;51.74;97372.00;10020310;29;20505;-85
2022/06/14 00:30:52;;;;;;;1.92;1.60;;;;;;;19.10;51.57;97373.09;10031232;29;20049;-84
2022/06/14 00:36:38;;;;;;;1.75;1.20;;;;;;;19.10;51.37;97375.00;10014835;29;20054;-85
2022/06/14 00:41:57;;;;;;;1.63;1.30;;;;;;;19.10;51.35;97375.78;10032341;29;20426;-84
2022/06/14 00:47:19;;;;;;;1.60;1.17;;;;;;;19.09;51.33;97387.72;10019163;29;20057;-84
2022/06/14 00:52:45;;;;;;;1.38;1.23;;;;;;;19.08;51.40;97378.00;10002582;29;20058;-84
2022/06/14 00:58:16;;;;;;;1.20;1.10;;;;;;;19.08;51.32;97383.41;10033533;29;20061;-84
2022/06/14 01:03:42;;;;;;;1.60;1.30;;;;;;;19.07;51.34;97392.63;10006436;29;20703;-84
2022/06/14 01:09:05;;;;;;;2.78;1.20;;;;;;;19.07;51.33;97392.63;10025699;29;20419;-84
2022/06/14 01:14:56;;;;;;;1.38;1.20;;;;;;;19.07;51.31;97395.31;9987707;29;20037;-84
2022/06/14 01:20:18;;;;;;;3.47;1.27;;;;;;;19.07;51.27;97389.09;10006357;29;20122;-84
2022/06/14 01:26:08;;;;;;;1.48;1.25;;;;;;;19.07;51.25;97386.41;10013244;29;20050;-84
2022/06/14 01:31:29;;;;;;;1.58;1.13;;;;;;;19.08;51.16;97401.53;10013619;29;20050;-84
2022/06/14 01:36:49;;;;;;;2.00;1.17;;;;;;;19.05;51.04;97394.84;10025065;29;20413;-85
2022/06/14 01:42:25;;;;;;;1.38;1.17;;;;;;;19.04;51.00;97398.63;10021247;29;20080;-86
2022/06/14 01:47:59;;;;;;;1.30;1.00;;;;;;;19.05;51.08;97392.13;10004860;29;20450;-84
2022/06/14 01:53:25;;;;;;;2.25;1.20;;;;;;;19.05;51.09;97397.53;9962442;29;20047;-84
2022/06/14 01:58:44;;;;;;;1.35;1.00;;;;;;;19.03;51.09;97402.41;9995386;29;20050;-84
2022/06/14 02:10:08;;;;;;;1.08;0.90;;;;;;;19.04;51.05;97403.25;10008605;29;20585;-85
2022/06/14 02:15:30;;;;;;;2.13;1.30;;;;;;;19.03;50.99;97398.94;9981259;29;20050;-84
2022/06/14 02:21:03;;;;;;;15.27;1.35;;;;;;;19.02;51.01;97403.53;9996580;29;20054;-83
2022/06/14 02:26:46;;;;;;;2.80;0.90;;;;;;;19.01;50.86;97410.03;9945716;29;20232;-84
2022/06/14 02:32:25;;;;;;;1.02;0.98;;;;;;;19.00;50.76;97408.44;9980775;29;20051;-84
2022/06/14 02:37:59;;;;;;;1.40;0.95;;;;;;;19.02;50.82;97408.16;10000010;29;20455;-84
2022/06/14 02:43:32;;;;;;;1.58;1.20;;;;;;;19.00;50.71;97413.84;9982565;29;20051;-84
2022/06/14 02:48:57;;;;;;;0.82;0.82;;;;;;;19.00;50.58;97413.84;10004128;29;20111;-84
2022/06/14 02:54:26;;;;;;;10.02;1.33;;;;;;;18.98;50.45;97410.66;10034923;29;20057;-84
2022/06/14 03:00:11;;;;;;;1.30;1.00;;;;;;;18.99;50.47;97411.44;10011940;29;20046;-84
2022/06/14 03:06:10;;;;;;;2.05;0.85;;;;;;;18.98;50.36;97415.25;10020587;29;20046;-85
2022/06/14 03:11:51;;;;;;;1.05;0.95;;;;;;;18.97;50.26;97414.44;9988294;29;20050;-84
2022/06/14 03:17:55;;;;;;;3.67;1.10;;;;;;;18.96;50.21;97416.34;10011586;29;20052;-84
2022/06/14 03:23:45;;;;;;;1.00;0.80;;;;;;;18.96;50.12;97412.88;9996768;29;20708;-84
2022/06/14 03:29:19;;;;;;;1.92;1.15;;;;;;;18.95;50.03;97417.47;9992798;29;20065;-84
2022/06/14 03:34:49;;;;;;;1.65;0.93;;;;;;;18.95;49.74;97419.34;10016684;29;20061;-84
2022/06/14 03:40:14;;;;;;;1.27;0.95;;;;;;;18.95;50.17;97424.75;10030776;29;20383;-83
2022/06/14 03:46:07;;;;;;;1.77;1.08;;;;;;;18.94;50.04;97420.47;10008498;29;20058;-83
2022/06/14 03:51:39;;;;;;;1.27;1.00;;;;;;;18.94;50.07;97425.88;9998293;29;20058;-84
2022/06/14 03:57:14;;;;;;;1.00;0.73;;;;;;;18.94;50.01;97433.97;10031338;29;20046;-84
2022/06/14 04:02:55;;;;;;;2.17;0.95;;;;;;;18.93;50.24;97445.84;10007592;29;20077;-84
2022/06/14 04:08:47;;;;;;;1.63;1.00;;;;;;;18.93;50.51;97445.84;10021676;29;20062;-83
2022/06/14 04:14:29;;;;;;;1.75;1.02;;;;;;;18.92;50.54;97438.88;10008946;29;20047;-83
2022/06/14 04:20:16;;;;;;;2.33;1.40;;;;;;;18.92;50.57;97442.38;10013846;29;20053;-83
2022/06/14 04:25:50;;;;;;;1.48;1.08;;;;;;;18.92;50.85;97433.47;10003072;29;20110;-84
2022/06/14 04:31:31;;;;;;;1.05;0.98;;;;;;;18.91;50.49;97443.47;10031841;29;20050;-83
2022/06/14 04:37:05;;;;;;;1.52;0.90;;;;;;;18.90;50.90;97435.69;10006072;29;20057;-83
2022/06/14 04:42:39;;;;;;;2.35;1.20;;;;;;;18.92;51.09;97441.56;10013423;29;20424;-83
2022/06/14 04:48:19;;;;;;;2.78;1.02;;;;;;;18.90;50.31;97441.09;10008757;29;20056;-84
2022/06/14 04:53:59;;;;;;;1.55;1.20;;;;;;;18.91;49.90;97442.66;10026570;29;20429;-84
2022/06/14 04:59:22;;;;;;;3.22;0.93;;;;;;;18.92;50.07;97450.47;10003688;29;20061;-84
2022/06/14 05:04:47;;;;;;;1.98;1.00;;;;;;;18.94;50.56;97444.78;10023967;29;20050;-84
2022/06/14 05:10:11;;;;;;;1.88;1.08;;;;;;;18.91;49.11;97448.84;10002222;29;20057;-85
2022/06/14 05:15:43;;;;;;;5.75;1.70;;;;;;;18.70;48.35;97442.28;10005449;29;20046;-85
2022/06/14 05:21:15;;;;;;;9.25;1.50;;;;;;;18.77;49.28;97446.16;10019183;29;21028;-84
2022/06/14 05:26:53;;;;;;;9.98;2.35;;;;;;;18.84;49.56;97448.50;10022593;29;20077;-85
2022/06/14 05:32:27;;;;;;;12.80;3.10;;;;;;;18.89;49.97;97444.88;10019006;29;20522;-85
2022/06/14 05:37:53;;;;;;;12.75;2.80;;;;;;;18.91;50.46;97453.47;9991515;29;20054;-84
2022/06/14 05:43:34;;;;;;;7.07;2.85;;;;;;;18.93;50.67;97457.47;10008872;29;20050;-84
2022/06/14 05:48:58;;;;;;;13.15;3.20;;;;;;;18.92;50.87;97455.06;10013880;29;20061;-85
2022/06/14 05:54:36;;;;;;;9.55;2.85;;;;;;;18.93;51.16;97457.47;10007379;29;20054;-84
2022/06/14 06:00:10;;;;;;;9.50;3.13;;;;;;;18.94;51.36;97458.28;10007085;29;20547;-84
2022/06/14 06:05:35;;;;;;;9.75;3.13;;;;;;;18.94;51.47;97455.56;10019455;29;20077;-84
2022/06/14 06:11:08;;;;;;;8.57;2.88;;;;;;;18.94;51.62;97460.97;10010120;29;20057;-84
2022/06/14 06:22:15;;;;;;;7.43;2.95;;;;;;;18.95;51.80;97462.56;10031144;29;20141;-84
2022/06/14 06:27:47;;;;;;;8.23;2.63;;;;;;;18.95;51.84;97454.44;10053188;29;20062;-84
2022/06/14 06:33:10;;;;;;;5.72;2.10;;;;;;;18.96;51.92;97469.56;10008908;29;20738;-84
2022/06/14 06:38:41;;;;;;;7.53;2.70;;;;;;;18.96;52.10;97483.06;10017640;29;20502;-84
2022/06/14 06:44:07;;;;;;;7.75;2.63;;;;;;;18.96;52.21;97478.47;10026132;29;20425;-85
2022/06/14 06:49:36;;;;;;;8.18;2.80;;;;;;;18.96;52.27;97481.16;10030080;29;20054;-84
2022/06/14 06:54:57;;;;;;;;;;;;;;;18.95;52.39;97492.25;10014873;29;20461;-84
2022/06/14 07:00:18;;;;;;;6.50;2.42;;;;;;;18.97;52.33;97495.44;10029076;29;20481;-84
2022/06/14 07:05:37;;;;;;;6.90;2.50;;;;;;;18.96;52.44;97491.94;10017856;29;20079;-84
2022/06/14 07:10:58;;;;;;;8.75;2.85;;;;;;;18.96;52.46;97494.66;9997077;29;20522;-84
2022/06/14 07:16:58;;;;;;;7.32;3.05;;;;;;;18.96;52.65;97493.88;10038914;29;20050;-83
2022/06/14 07:22:21;;;;;;;5.07;2.70;;;;;;;18.98;52.84;97490.88;9992989;29;20425;-84
2022/06/14 07:28:25;;;;;;;5.25;2.53;;;;;;;18.98;52.84;97482.75;9999424;29;20110;-84
2022/06/14 07:33:45;;;;;;;3.88;2.03;;;;;;;18.98;52.79;97483.56;10029299;29;20061;-84
2022/06/14 07:39:11;;;;;;;6.90;2.28;;;;;;;18.97;52.75;97487.34;10019365;29;20414;-83
2022/06/14 07:44:55;;;;;;;6.13;2.47;;;;;;;18.99;53.04;97477.03;10014304;29;20432;-84
2022/06/14 07:50:24;;;;;;;4.68;2.42;;;;;;;18.99;53.12;97465.44;10020820;29;20062;-84
2022/06/14 07:55:47;;;;;;;5.05;2.47;;;;;;;18.99;53.32;97465.44;10008457;29;20072;-83
2022/06/14 08:01:13;;;;;;;4.93;2.33;;;;;;;18.99;53.27;97470.84;10014345;29;20050;-83
2022/06/14 08:06:35;;;;;;;5.65;2.42;;;;;;;18.98;53.30;97464.66;9997828;29;20080;-83
2022/06/14 08:11:57;;;;;;;3.83;2.22;;;;;;;19.00;53.40;97465.16;10029395;29;20517;-84
2022/06/14 08:17:22;;;;;;;5.82;2.30;;;;;;;19.00;53.48;97464.34;10026048;29;20092;-84
2022/06/14 08:22:48;;;;;;;4.07;1.95;;;;;;;19.00;53.54;97457.06;10007606;29;20054;-83
2022/06/14 08:28:20;;;;;;;4.78;2.22;;;;;;;19.01;53.80;97469.44;10003540;29;20069;-83
2022/06/14 08:34:11;;;;;;;3.55;2.00;;;;;;;19.01;53.50;97474.84;9998071;29;20046;-84
2022/06/14 08:39:37;;;;;;;4.63;1.98;;;;;;;19.01;53.34;97460.53;9985892;29;20449;-83
2022/06/14 08:45:06;;;;;;;5.22;1.90;;;;;;;19.01;53.33;97468.66;10033222;29;20415;-83
2022/06/14 08:50:51;;;;;;;3.28;1.70;;;;;;;19.01;53.50;97465.94;10012739;29;20053;-83
2022/06/14 08:56:35;;;;;;;2.50;1.40;;;;;;;19.01;53.49;97452.44;10013802;29;20054;-84
2022/06/14 09:02:30;;;;;;;3.20;1.63;;;;;;;19.02;53.51;97454.84;10008007;29;20046;-83
2022/06/14 09:08:18;;;;;;;5.95;1.73;;;;;;;19.02;53.55;97457.53;10003667;29;20054;-83
2022/06/14 09:13:44;;;;;;;5.95;1.80;;;;;;;19.03;53.41;97467.22;10038058;29;20052;-83
2022/06/14 09:19:18;;;;;;;3.45;1.73;;;;;;;19.03;53.53;97467.22;10013526;29;20058;-83
2022/06/14 09:24:47;;;;;;;4.53;1.60;;;;;;;19.02;53.54;97457.53;9997886;29;20072;-83
2022/06/14 09:30:44;;;;;;;2.88;1.50;;;;;;;19.03;53.41;97461.03;10037789;29;20118;-83
2022/06/14 09:36:13;;;;;;;4.93;1.45;;;;;;;19.03;53.20;97450.22;10012956;29;20057;-84
2022/06/14 09:42:10;;;;;;;4.13;1.50;;;;;;;19.04;53.31;97433.72;10021772;29;20471;-84
2022/06/14 09:47:51;;;;;;;5.88;1.50;;;;;;;19.05;53.40;97445.31;10014765;29;20054;-84
2022/06/14 09:53:13;;;;;;;4.30;1.70;;;;;;;19.05;53.52;97450.72;10008046;29;20529;-84
2022/06/14 09:59:24;;;;;;;3.67;1.50;;;;;;;19.05;53.53;97440.75;10010098;29;20057;-85
2022/06/14 10:04:52;;;;;;;5.57;1.50;;;;;;;19.05;53.57;97454.25;9995742;29;20062;-82
2022/06/14 10:10:11;;;;;;;3.08;1.45;;;;;;;19.05;53.66;97437.22;9980543;29;20110;-82
2022/06/14 10:15:56;;;;;;;2.60;1.30;;;;;;;19.06;53.62;97436.94;10013535;29;20057;-83
2022/06/14 10:21:36;;;;;;;2.70;1.23;;;;;;;19.05;53.70;97437.22;10026015;29;20133;-83
2022/06/14 10:33:14;;;;;;;2.78;1.33;;;;;;;19.06;53.81;97428.81;10017122;29;20046;-83
2022/06/14 10:39:04;;;;;;;3.08;1.27;;;;;;;19.06;53.88;97430.72;10042062;29;20061;-84
2022/06/14 10:44:24;;;;;;;2.33;1.27;;;;;;;19.05;53.77;97421.84;10024823;29;20053;-83
2022/06/14 10:50:12;;;;;;;2.10;1.10;;;;;;;19.05;53.76;97416.44;10029147;29;20566;-84
2022/06/14 10:55:37;;;;;;;3.33;1.20;;;;;;;19.07;53.95;97418.81;10027460;29;20061;-84
2022/06/14 11:01:19;;;;;;;1.98;1.20;;;;;;;19.06;53.93;97417.22;10019498;29;20118;-84
2022/06/14 11:06:48;;;;;;;2.53;1.08;;;;;;;19.07;53.79;97427.72;10013290;29;20422;-84
2022/06/14 11:12:17;;;;;;;3.45;1.20;;;;;;;19.07;53.83;97414.22;10033271;29;20061;-83
2022/06/14 11:17:58;;;;;;;1.92;1.10;;;;;;;19.07;53.88;97406.13;10020021;29;20046;-84
2022/06/14 11:23:27;;;;;;;2.90;1.25;;;;;;;19.08;53.99;97415.03;10030368;29;20050;-83
2022/06/14 11:29:05;;;;;;;2.67;1.10;;;;;;;19.08;53.91;97410.41;10008261;29;20077;-84
2022/06/14 11:34:44;;;;;;;2.37;0.90;;;;;;;19.07;53.94;97408.81;10016973;29;20564;-84
2022/06/14 11:40:15;;;;;;;2.65;1.10;;;;;;;19.08;54.04;97404.22;10002808;29;20118;-84
2022/06/14 11:46:02;;;;;;;2.40;1.08;;;;;;;19.07;53.92;97405.31;10031949;29;20049;-84
2022/06/14 11:51:24;;;;;;;1.45;1.00;;;;;;;19.08;53.92;97394.22;9996379;29;20418;-84
2022/06/14 11:57:10;;;;;;;4.45;1.25;;;;;;;19.08;54.00;97394.22;10037983;29;20413;-84
2022/06/14 12:02:51;;;;;;;1.20;0.90;;;;;;;19.09;54.01;97400.41;10028663;29;20058;-84
2022/06/14 12:08:16;;;;;;;1.95;1.00;;;;;;;19.08;53.95;97388.81;10021742;29;20061;-83
2022/06/14 12:13:40;;;;;;;1.73;0.98;;;;;;;19.09;53.86;97393.13;10028935;29;20058;-84
2022/06/14 12:19:20;;;;;;;2.47;1.00;;;;;;;19.08;53.91;97375.31;10037042;29;20057;-83
2022/06/14 12:30:18;;;;;;;1.17;0.77;;;;;;;19.09;54.07;97374.22;10007345;29;20106;-83
2022/06/14 12:35:46;;;;;;;1.67;0.98;;;;;;;19.09;54.06;97374.22;10008973;29;20049;-83
2022/06/14 12:41:27;;;;;;;2.00;0.90;;;;;;;19.10;54.04;97366.91;10041473;29;20058;-83
2022/06/14 12:46:47;;;;;;;2.10;1.10;;;;;;;19.10;54.00;97372.31;10015934;29;20060;-83
2022/06/14 12:52:19;;;;;;;1.50;1.00;;;;;;;19.10;54.12;97365.00;10003604;29;20073;-85
2022/06/14 12:58:20;;;;;;;1.27;0.90;;;;;;;19.12;54.03;97362.00;9992383;29;20061;-84
2022/06/14 13:04:04;;;;;;;1.17;0.75;;;;;;;19.11;53.79;97357.69;10007798;29;20069;-84
2022/06/14 13:09:47;;;;;;;2.72;1.00;;;;;;;19.11;53.73;97350.41;10009832;29;20050;-84
2022/06/14 13:15:34;;;;;;;3.85;0.98;;;;;;;19.11;53.79;97349.56;10028733;29;20050;-85
2022/06/14 13:20:53;;;;;;;1.92;0.95;;;;;;;19.10;53.75;97354.19;10012067;29;20081;-84
2022/06/14 13:26:18;;;;;;;1.83;1.02;;;;;;;19.11;53.85;97344.19;10010568;29;20536;-85
2022/06/14 13:32:00;;;;;;;2.15;0.95;;;;;;;19.13;53.78;97336.56;9996257;29;20049;-85
2022/06/14 13:37:29;;;;;;;3.95;0.88;;;;;;;19.11;53.91;97328.78;10023785;29;20595;-84
2022/06/14 13:42:57;;;;;;;2.92;1.13;;;;;;;19.13;54.01;97333.84;10021237;29;20065;-84
2022/06/14 13:48:21;;;;;;;2.17;1.17;;;;;;;19.13;54.17;97334.69;10002574;29;20057;-84
2022/06/14 13:53:52;;;;;;;2.28;1.00;;;;;;;19.13;54.20;97326.56;9978519;29;20051;-84
2022/06/14 13:59:17;;;;;;;2.88;1.10;;;;;;;19.12;53.95;97308.78;10014065;29;20552;-84
2022/06/14 14:04:44;;;;;;;2.72;1.13;;;;;;;19.13;53.96;97307.69;9992079;29;20051;-85
2022/06/14 14:10:07;;;;;;;2.13;1.10;;;;;;;19.16;54.02;97319.75;9995881;29;20058;-85
2022/06/14 14:15:50;;;;;;;2.78;1.02;;;;;;;19.15;54.06;97313.56;9997809;29;20058;-85
2022/06/14 14:21:35;;;;;;;3.30;1.58;;;;;;;19.16;54.21;97311.66;10007555;29;20045;-85
2022/06/14 14:27:17;;;;;;;2.72;1.00;;;;;;;19.16;54.11;97304.34;9979502;29;20065;-84
2022/06/14 14:32:42;;;;;;;2.78;1.20;;;;;;;19.17;54.12;97297.06;9997226;29;20056;-84
2022/06/14 14:38:09;;;;;;;3.05;1.00;;;;;;;19.17;54.28;97300.53;9994676;29;20051;-84
2022/06/14 14:43:30;;;;;;;2.15;1.10;;;;;;;19.19;54.29;97299.44;9987445;29;20050;-84
2022/06/14 14:48:56;;;;;;;2.90;1.15;;;;;;;19.18;53.95;97293.22;9995704;29;20074;-85
2022/06/14 14:54:24;;;;;;;4.38;1.25;;;;;;;19.20;54.30;97287.53;10042496;29;20057;-84
2022/06/14 15:06:11;;;;;;;2.42;1.13;;;;;;;19.20;54.29;97272.13;9933218;29;20067;-84
2022/06/14 15:11:31;;;;;;;3.42;1.00;;;;;;;19.21;54.23;97268.31;9971527;29;20126;-84
2022/06/14 15:22:42;;;;;;;2.55;1.20;;;;;;;19.22;54.26;97259.09;10030671;29;20721;-85
2022/06/14 15:28:08;;;;;;;24.77;1.48;;;;;;;19.23;54.47;97254.47;10020601;29;20062;-85
2022/06/14 15:33:35;;;;;;;2.92;1.05;;;;;;;19.24;54.39;97253.38;10032732;29;20061;-84
2022/06/14 15:39:02;;;;;;;2.13;0.90;;;;;;;19.25;54.47;97244.16;10020330;29;20054;-84
2022/06/14 15:44:31;;;;;;;2.47;1.17;;;;;;;19.25;54.27;97236.88;10021372;29;20057;-85
2022/06/14 15:49:51;;;;;;;2.40;1.08;;;;;;;19.27;54.46;97233.88;10007545;29;20061;-85
2022/06/14 15:55:22;;;;;;;2.38;1.17;;;;;;;19.27;54.54;97231.16;10005289;29;20055;-85
2022/06/14 16:00:59;;;;;;;2.67;1.25;;;;;;;19.25;52.63;97234.19;10003284;29;20045;-85
2022/06/14 16:06:32;;;;;;;2.88;1.00;;;;;;;19.31;49.42;97226.72;10018266;29;20110;-86
2022/06/14 16:11:56;;;;;;;2.70;0.95;;;;;;;19.32;47.93;97225.59;10029700;29;20060;-86
2022/06/14 16:17:33;;;;;;;3.90;0.93;;;;;;;19.30;46.11;97225.91;10026536;29;20050;-87
2022/06/14 16:22:59;;;;;;;1.88;1.00;;;;;;;19.32;45.73;97226.41;10022301;29;20053;-87
2022/06/14 16:28:51;;;;;;;2.45;0.80;;;;;;;19.26;44.66;97224.16;10025526;29;20064;-86
2022/06/14 16:34:37;;;;;;;1.95;0.90;;;;;;;19.22;46.15;97221.28;10023196;29;20053;-87
2022/06/14 16:40:05;;;;;;;1.92;0.93;;;;;;;19.22;47.25;97220.50;10013412;29;20046;-86
2022/06/14 16:45:36;;;;;;;2.83;1.10;;;;;;;19.21;47.49;97224.28;10029018;29;20500;-84
2022/06/14 16:51:09;;;;;;;1.65;1.00;;;;;;;19.21;47.87;97222.41;9996040;29;20055;-86
2022/06/14 16:56:39;;;;;;;1.20;0.82;;;;;;;19.21;47.93;97208.06;9994984;29;20446;-85
2022/06/14 17:02:09;;;;;;;1.50;1.10;;;;;;;19.22;48.17;97209.69;10021389;29;20418;-86
2022/06/14 17:07:34;;;;;;;1.58;0.98;;;;;;;19.24;47.61;97215.56;10002158;29;20095;-86
2022/06/14 17:13:13;;;;;;;2.55;0.90;;;;;;;19.25;47.04;97217.97;9998101;29;20053;-86
2022/06/14 17:18:47;;;;;;;2.75;1.05;;;;;;;19.25;46.38;97217.97;9996100;29;20113;-86
2022/06/14 17:24:10;;;;;;;2.17;0.98;;;;;;;19.27;46.48;97223.06;10016147;29;20126;-86
2022/06/14 17:35:13;;;;;;;1.90;0.82;;;;;;;19.25;47.36;97215.25;10006722;29;20049;-85
2022/06/14 17:40:37;;;;;;;2.15;0.80;;;;;;;19.24;47.28;97216.34;10007686;29;20057;-86
2022/06/14 17:46:18;;;;;;;2.78;1.13;;;;;;;19.24;47.82;97223.69;9999381;29;20049;-85
2022/06/14 17:51:48;;;;;;;2.20;1.00;;;;;;;19.22;48.22;97212.38;10009351;29;20424;-87
2022/06/14 17:57:43;;;;;;;0.82;0.80;;;;;;;19.21;48.22;97214.28;10020497;29;20057;-87
2022/06/14 18:03:04;;;;;;;1.42;1.00;;;;;;;19.20;48.48;97223.50;10002791;29;20133;-86
2022/06/14 18:08:33;;;;;;;1.10;1.00;;;;;;;19.20;48.54;97222.72;10008101;29;20058;-87
2022/06/14 18:13:55;;;;;;;1.05;0.77;;;;;;;19.20;47.82;97228.09;10007647;29;20058;-87
2022/06/14 18:25:10;;;;;;;1.08;0.98;;;;;;;19.17;48.51;97222.22;10003883;29;20054;-87
2022/06/14 18:30:39;;;;;;;1.55;0.93;;;;;;;19.16;48.69;97226.00;10003474;29;20054;-88
2022/06/14 18:36:12;;;;;;;2.03;1.10;;;;;;;19.17;48.61;97224.13;10018309;29;20157;-87
2022/06/14 18:41:34;;;;;;;1.00;0.90;;;;;;;19.16;48.71;97228.72;10006558;29;20058;-87
2022/06/14 18:46:57;;;;;;;2.15;0.90;;;;;;;19.16;48.67;97225.22;9998281;29;20106;-87
2022/06/14 18:52:23;;;;;;;1.30;0.95;;;;;;;19.16;48.75;97223.31;10001644;29;20062;-87
2022/06/14 18:57:48;;;;;;;2.05;0.82;;;;;;;19.16;48.95;97225.22;10008148;29;20140;-87
2022/06/14 19:03:21;;;;;;;3.20;0.95;;;;;;;19.16;48.89;97231.41;10038524;29;20047;-85
2022/06/14 19:09:22;;;;;;;6.10;1.00;;;;;;;19.17;48.75;97224.13;10016039;29;20058;-84
2022/06/14 19:15:13;;;;;;;3.15;0.93;;;;;;;19.17;49.03;97235.72;9959279;29;20062;-84
2022/06/14 19:20:40;;;;;;;1.25;0.95;;;;;;;19.16;49.07;97231.41;10012972;29;20075;-83
2022/06/14 19:26:18;;;;;;;1.70;0.90;;;;;;;19.15;48.90;97237.13;9996176;29;20050;-84
2022/06/14 19:31:43;;;;;;;2.92;1.10;;;;;;;19.15;48.85;97248.75;10025445;29;20060;-85
2022/06/14 19:37:17;;;;;;;2.75;1.00;;;;;;;19.16;49.12;97247.63;9991997;29;20406;-85
2022/06/14 19:42:40;;;;;;;3.50;1.15;;;;;;;19.17;49.53;97257.34;10020012;29;20433;-85
2022/06/14 19:48:08;;;;;;;9.43;1.52;;;;;;;19.16;49.74;97255.72;10000018;29;20054;-85
2022/06/14 19:53:30;;;;;;;7.25;1.50;;;;;;;19.17;49.67;97267.34;9980147;29;20049;-84
2022/06/14 19:58:55;;;;;;;1.83;1.20;;;;;;;19.15;49.43;97264.94;10025943;29;20410;-85
2022/06/14 20:04:21;;;;;;;3.67;1.08;;;;;;;19.13;49.31;97277.97;10006338;29;20061;-85
2022/06/14 20:09:43;;;;;;;3.15;1.33;;;;;;;19.12;49.10;97276.34;10010041;29;20714;-85
2022/06/14 20:15:09;;;;;;;3.35;1.40;;;;;;;19.12;49.02;97272.88;10008227;29;20050;-85
2022/06/14 20:20:37;;;;;;;1.77;1.10;;;;;;;19.11;49.00;97274.78;9999556;29;20046;-84
2022/06/14 20:25:59;;;;;;;2.00;1.00;;;;;;;19.12;48.56;97280.97;10014080;29;20129;-84
2022/06/14 20:31:19;;;;;;;6.97;1.20;;;;;;;19.11;48.48;97285.59;10006250;29;20053;-84
2022/06/14 20:36:40;;;;;;;3.17;1.00;;;;;;;19.10;48.13;97280.47;9992555;29;20058;-84
2022/06/14 20:42:11;;;;;;;3.25;1.20;;;;;;;19.08;48.13;97286.19;10009414;29;20891;-84
2022/06/14 20:47:35;;;;;;;7.32;1.20;;;;;;;19.09;48.45;97284.28;10029254;29;20467;-84
2022/06/14 20:53:02;;;;;;;7.55;1.63;;;;;;;19.08;48.34;97275.38;9998752;29;20161;-84
2022/06/14 20:58:22;;;;;;;23.27;2.08;;;;;;;19.10;48.68;97283.19;9988342;29;20398;-83
2022/06/14 21:03:46;;;;;;;34.80;2.47;;;;;;;19.11;48.76;97287.47;10004404;29;20123;-83
2022/06/14 21:09:21;;;;;;;4.05;1.05;;;;;;;19.10;49.02;97289.38;10000986;29;20050;-83
2022/06/14 21:14:47;;;;;;;1.13;1.00;;;;;;;19.12;49.21;97286.38;9997036;29;20050;-84
2022/06/14 21:20:09;;;;;;;2.45;1.02;;;;;;;19.13;49.68;97294.16;9991978;29;20058;-84
2022/06/14 21:25:34;;;;;;;3.58;1.00;;;;;;;19.16;49.68;97285.44;10006715;29;20058;-84
2022/06/14 21:31:00;;;;;;;2.60;1.10;;;;;;;19.18;49.70;97282.44;10004561;29;20061;-84
2022/06/14 21:37:00;;;;;;;1.60;0.98;;;;;;;19.18;49.95;97279.72;10005292;29;20050;-85
2022/06/14 21:42:21;;;;;;;2.58;1.10;;;;;;;19.19;50.08;97294.03;10034149;29;20053;-85
2022/06/14 21:47:41;;;;;;;2.25;1.08;;;;;;;19.20;49.63;97292.94;10005351;29;20395;-84
2022/06/14 21:53:04;;;;;;;1.65;0.93;;;;;;;19.19;50.19;97294.03;9973572;29;20054;-86
2022/06/14 21:58:28;;;;;;;1.30;1.00;;;;;;;19.17;50.22;97300.53;9966621;29;20110;-85
2022/06/14 22:03:53;;;;;;;1.23;1.00;;;;;;;19.15;50.46;97300.06;9990906;29;20058;-85
2022/06/14 22:09:13;;;;;;;1.30;1.02;;;;;;;19.14;50.43;97301.16;9983436;29;20063;-85
2022/06/14 22:14:37;;;;;;;1.20;0.90;;;;;;;19.12;50.49;97289.88;9973859;29;20057;-85
2022/06/14 22:19:56;;;;;;;1.65;0.98;;;;;;;19.12;50.66;97295.25;9984099;29;20083;-85
2022/06/14 22:25:16;;;;;;;0.93;0.82;;;;;;;19.11;50.55;97290.97;9995929;29;20693;-85
2022/06/14 22:30:37;;;;;;;1.00;0.98;;;;;;;19.11;50.61;97285.59;9992496;29;20062;-85
2022/06/14 22:36:06;;;;;;;37.83;2.72;;;;;;;19.11;50.76;97290.97;9980795;29;20054;-85
2022/06/14 22:41:25;;;;;;;;;;;;;;;19.10;50.90;97294.00;9992564;29;20050;-85
2022/06/14 22:46:45;;;;;;;1.27;1.00;;;;;;;19.10;50.75;97294.78;9995741;29;19925;-85
2022/06/14 22:52:07;;;;;;;0.80;0.80;;;;;;;19.10;50.79;97292.06;9977875;29;20062;-85
2022/06/14 22:57:30;;;;;;;1.00;0.85;;;;;;;19.10;50.80;97297.47;9990308;29;20051;-85
2022/06/14 23:02:50;;;;;;;1.10;0.90;;;;;;;19.11;50.86;97298.25;9959952;29;20062;-85
2022/06/14 23:08:10;;;;;;;0.80;0.77;;;;;;;19.10;51.04;97294.78;9991390;29;20058;-85
2022/06/14 23:13:30;;;;;;;1.42;1.00;;;;;;;19.09;50.97;97289.69;9966196;29;20054;-85
2022/06/14 23:18:49;;;;;;;0.90;0.70;;;;;;;19.10;50.95;97294.00;9985317;29;20491;-85
2022/06/14 23:24:09;;;;;;;1.05;0.80;;;;;;;19.10;51.15;97288.59;9987823;29;20169;-85
2022/06/14 23:29:28;;;;;;;1.05;0.95;;;;;;;19.10;51.19;97297.47;9997590;29;20540;-84
2022/06/14 23:34:47;;;;;;;0.90;0.80;;;;;;;19.09;51.08;97293.19;9986357;29;20050;-85
2022/06/14 23:40:10;;;;;;;1.27;0.80;;;;;;;19.10;51.27;97300.19;9977398;29;20047;-85
2022/06/14 23:45:30;;;;;;;1.38;1.02;;;;;;;19.09;51.13;97297.78;9983653;29;20049;-85
2022/06/14 23:50:50;;;;;;;0.90;0.90;;;;;;;19.09;51.27;97298.59;9988979;29;20066;-85
2022/06/14 23:56:11;;;;;;;1.13;0.90;;;;;;;19.09;51.34;97293.19;10020686;29;20050;-85
